sensor_id;sensor_type;location;lat;lon;timestamp;pressure;altitude;pressure_sealevel;temperature;humidity
84797;BME280;75028;51.374;21.078;2024-01-06T00:02:06;98754.13;;;0.22;85.52
84797;BME280;75028;51.374;21.078;2024-01-06T00:04:32;98749.09;;;0.19;86.22
84797;BME280;75028;51.374;21.078;2024-01-06T00:06:58;98742.63;;;0.12;86.27
84797;BME280;75028;51.374;21.078;2024-01-06T00:09:25;98747.34;;;0.20;87.07
84797;BME280;75028;51.374;21.078;2024-01-06T00:11:50;98736.19;;;0.18;86.88
84797;BME280;75028;51.374;21.078;2024-01-06T00:14:17;98737.59;;;0.09;87.87
84797;BME280;75028;51.374;21.078;2024-01-06T00:16:43;98739.38;;;0.09;88.00
84797;BME280;75028;51.374;21.078;2024-01-06T00:19:09;98735.28;;;0.04;87.05
84797;BME280;75028;51.374;21.078;2024-01-06T00:21:35;98734.28;;;0.07;86.93
84797;BME280;75028;51.374;21.078;2024-01-06T00:24:02;98733.16;;;0.11;87.74
84797;BME280;75028;51.374;21.078;2024-01-06T00:26:28;98731.00;;;0.18;87.43
84797;BME280;75028;51.374;21.078;2024-01-06T00:28:54;98725.63;;;0.21;87.49
84797;BME280;75028;51.374;21.078;2024-01-06T00:31:20;98728.25;;;0.07;88.14
84797;BME280;75028;51.374;21.078;2024-01-06T00:33:46;98723.91;;;0.07;88.19
84797;BME280;75028;51.374;21.078;2024-01-06T00:36:12;98732.41;;;0.09;88.10
84797;BME280;75028;51.374;21.078;2024-01-06T00:38:38;98736.31;;;-0.12;87.25
84797;BME280;75028;51.374;21.078;2024-01-06T00:41:04;98741.50;;;0.02;88.61
84797;BME280;75028;51.374;21.078;2024-01-06T00:43:30;98741.50;;;0.02;89.17
84797;BME280;75028;51.374;21.078;2024-01-06T00:45:56;98739.56;;;-0.09;88.99
84797;BME280;75028;51.374;21.078;2024-01-06T00:48:23;98735.88;;;-0.05;90.28
84797;BME280;75028;51.374;21.078;2024-01-06T00:50:48;98733.00;;;0.00;89.08
84797;BME280;75028;51.374;21.078;2024-01-06T00:53:15;98719.63;;;-0.08;90.44
84797;BME280;75028;51.374;21.078;2024-01-06T00:55:41;98731.22;;;0.00;90.05
84797;BME280;75028;51.374;21.078;2024-01-06T00:58:07;98738.38;;;-0.03;88.54
84797;BME280;75028;51.374;21.078;2024-01-06T01:00:34;98739.38;;;0.09;88.84
84797;BME280;75028;51.374;21.078;2024-01-06T01:03:00;98726.84;;;0.01;88.58
84797;BME280;75028;51.374;21.078;2024-01-06T01:05:26;98730.00;;;-0.08;88.61
84797;BME280;75028;51.374;21.078;2024-01-06T01:07:52;98737.63;;;-0.05;88.82
84797;BME280;75028;51.374;21.078;2024-01-06T01:10:18;98742.81;;;-0.05;88.89
84797;BME280;75028;51.374;21.078;2024-01-06T01:12:44;98731.69;;;-0.21;89.27
84797;BME280;75028;51.374;21.078;2024-01-06T01:15:10;98742.16;;;-0.23;89.12
84797;BME280;75028;51.374;21.078;2024-01-06T01:17:37;98751.56;;;-0.06;88.55
84797;BME280;75028;51.374;21.078;2024-01-06T01:20:03;98742.47;;;-0.13;88.75
84797;BME280;75028;51.374;21.078;2024-01-06T01:22:29;98751.16;;;-0.14;90.14
84797;BME280;75028;51.374;21.078;2024-01-06T01:24:55;98752.84;;;-0.13;89.60
84797;BME280;75028;51.374;21.078;2024-01-06T01:27:22;98751.63;;;-0.08;89.24
84797;BME280;75028;51.374;21.078;2024-01-06T01:29:48;98739.47;;;-0.07;88.85
84797;BME280;75028;51.374;21.078;2024-01-06T01:32:18;98735.03;;;-0.05;88.44
84797;BME280;75028;51.374;21.078;2024-01-06T01:34:45;98738.56;;;-0.06;88.41
84797;BME280;75028;51.374;21.078;2024-01-06T01:37:11;98744.47;;;-0.04;89.02
84797;BME280;75028;51.374;21.078;2024-01-06T01:39:37;98736.78;;;-0.06;89.37
84797;BME280;75028;51.374;21.078;2024-01-06T01:42:03;98752.44;;;-0.07;88.65
84797;BME280;75028;51.374;21.078;2024-01-06T01:44:29;98746.34;;;-0.20;88.40
84797;BME280;75028;51.374;21.078;2024-01-06T01:46:55;98756.75;;;-0.06;88.38
84797;BME280;75028;51.374;21.078;2024-01-06T01:49:22;98753.31;;;-0.07;89.20
84797;BME280;75028;51.374;21.078;2024-01-06T01:51:49;98753.66;;;0.01;89.40
84797;BME280;75028;51.374;21.078;2024-01-06T01:54:15;98759.78;;;0.00;88.88
84797;BME280;75028;51.374;21.078;2024-01-06T01:56:42;98751.56;;;-0.06;88.71
84797;BME280;75028;51.374;21.078;2024-01-06T01:59:12;98742.38;;;-0.12;89.74
84797;BME280;75028;51.374;21.078;2024-01-06T02:01:40;98749.94;;;-0.09;90.67
84797;BME280;75028;51.374;21.078;2024-01-06T02:04:06;98737.34;;;-0.01;90.13
84797;BME280;75028;51.374;21.078;2024-01-06T02:06:32;98741.34;;;-0.09;90.02
84797;BME280;75028;51.374;21.078;2024-01-06T02:08:58;98742.34;;;0.03;89.15
84797;BME280;75028;51.374;21.078;2024-01-06T02:11:25;98738.44;;;0.10;88.76
84797;BME280;75028;51.374;21.078;2024-01-06T02:13:51;98737.13;;;0.17;89.12
84797;BME280;75028;51.374;21.078;2024-01-06T02:16:17;98736.13;;;0.05;88.76
84797;BME280;75028;51.374;21.078;2024-01-06T02:18:43;98724.06;;;0.04;89.79
84797;BME280;75028;51.374;21.078;2024-01-06T02:21:09;98715.63;;;0.00;89.73
84797;BME280;75028;51.374;21.078;2024-01-06T02:23:36;98717.78;;;-0.06;88.82
84797;BME280;75028;51.374;21.078;2024-01-06T02:26:03;98724.09;;;-0.10;88.49
84797;BME280;75028;51.374;21.078;2024-01-06T02:28:29;98716.66;;;-0.02;88.61
84797;BME280;75028;51.374;21.078;2024-01-06T02:30:55;98721.19;;;-0.06;89.07
84797;BME280;75028;51.374;21.078;2024-01-06T02:33:21;98715.00;;;-0.03;90.40
84797;BME280;75028;51.374;21.078;2024-01-06T02:35:50;98720.91;;;-0.01;89.99
84797;BME280;75028;51.374;21.078;2024-01-06T02:38:17;98717.13;;;-0.10;90.13
84797;BME280;75028;51.374;21.078;2024-01-06T02:40:43;98705.91;;;-0.10;89.43
84797;BME280;75028;51.374;21.078;2024-01-06T02:43:09;98705.69;;;-0.07;89.66
84797;BME280;75028;51.374;21.078;2024-01-06T02:45:36;98713.13;;;-0.01;89.21
84797;BME280;75028;51.374;21.078;2024-01-06T02:48:01;98719.44;;;-0.05;90.80
84797;BME280;75028;51.374;21.078;2024-01-06T02:50:28;98724.81;;;-0.08;90.29
84797;BME280;75028;51.374;21.078;2024-01-06T02:52:54;98732.50;;;-0.07;91.05
84797;BME280;75028;51.374;21.078;2024-01-06T02:55:20;98737.09;;;-0.10;90.04
84797;BME280;75028;51.374;21.078;2024-01-06T02:57:46;98727.41;;;-0.08;90.02
84797;BME280;75028;51.374;21.078;2024-01-06T03:00:12;98743.16;;;0.03;90.71
84797;BME280;75028;51.374;21.078;2024-01-06T03:02:38;98745.78;;;0.03;89.91
84797;BME280;75028;51.374;21.078;2024-01-06T03:05:08;98739.66;;;0.04;90.17
84797;BME280;75028;51.374;21.078;2024-01-06T03:07:35;98747.81;;;-0.02;90.08
84797;BME280;75028;51.374;21.078;2024-01-06T03:10:01;98750.16;;;-0.12;89.10
84797;BME280;75028;51.374;21.078;2024-01-06T03:12:27;98747.75;;;-0.15;89.96
84797;BME280;75028;51.374;21.078;2024-01-06T03:14:53;98744.47;;;-0.18;90.16
84797;BME280;75028;51.374;21.078;2024-01-06T03:17:19;98748.28;;;-0.10;90.45
84797;BME280;75028;51.374;21.078;2024-01-06T03:19:45;98747.25;;;-0.07;90.39
84797;BME280;75028;51.374;21.078;2024-01-06T03:22:11;98739.09;;;-0.01;90.79
84797;BME280;75028;51.374;21.078;2024-01-06T03:24:37;98748.28;;;0.04;89.94
84797;BME280;75028;51.374;21.078;2024-01-06T03:27:03;98746.16;;;0.11;89.44
84797;BME280;75028;51.374;21.078;2024-01-06T03:29:29;98740.47;;;0.04;89.40
84797;BME280;75028;51.374;21.078;2024-01-06T03:31:55;98748.09;;;0.08;90.75
84797;BME280;75028;51.374;21.078;2024-01-06T03:34:22;98727.97;;;-0.03;89.63
84797;BME280;75028;51.374;21.078;2024-01-06T03:36:48;98729.81;;;-0.05;89.22
84797;BME280;75028;51.374;21.078;2024-01-06T03:39:14;98730.59;;;-0.03;90.17
84797;BME280;75028;51.374;21.078;2024-01-06T03:41:40;98733.19;;;-0.03;90.69
84797;BME280;75028;51.374;21.078;2024-01-06T03:44:07;98732.16;;;-0.01;90.51
84797;BME280;75028;51.374;21.078;2024-01-06T03:46:34;98732.88;;;0.01;90.22
84797;BME280;75028;51.374;21.078;2024-01-06T03:49:00;98731.56;;;-0.06;90.89
84797;BME280;75028;51.374;21.078;2024-01-06T03:51:26;98728.44;;;0.03;91.39
84797;BME280;75028;51.374;21.078;2024-01-06T03:53:52;98726.59;;;0.06;90.59
84797;BME280;75028;51.374;21.078;2024-01-06T03:56:18;98710.91;;;0.07;90.86
84797;BME280;75028;51.374;21.078;2024-01-06T03:58:45;98714.41;;;0.06;90.39
84797;BME280;75028;51.374;21.078;2024-01-06T04:01:11;98715.00;;;-0.03;89.85
84797;BME280;75028;51.374;21.078;2024-01-06T04:03:38;98715.44;;;-0.11;89.41
84797;BME280;75028;51.374;21.078;2024-01-06T04:06:06;98720.91;;;-0.01;89.78
84797;BME280;75028;51.374;21.078;2024-01-06T04:08:32;98714.81;;;0.00;90.30
84797;BME280;75028;51.374;21.078;2024-01-06T04:10:58;98708.75;;;-0.01;89.85
84797;BME280;75028;51.374;21.078;2024-01-06T04:13:24;98714.91;;;-0.02;89.69
84797;BME280;75028;51.374;21.078;2024-01-06T04:15:51;98722.69;;;-0.02;89.02
84797;BME280;75028;51.374;21.078;2024-01-06T04:18:17;98720.66;;;-0.11;90.38
84797;BME280;75028;51.374;21.078;2024-01-06T04:20:44;98728.97;;;-0.06;90.68
84797;BME280;75028;51.374;21.078;2024-01-06T04:23:10;98730.19;;;-0.11;90.46
84797;BME280;75028;51.374;21.078;2024-01-06T04:25:36;98735.97;;;-0.20;91.24
84797;BME280;75028;51.374;21.078;2024-01-06T04:28:02;98735.88;;;-0.19;90.44
84797;BME280;75028;51.374;21.078;2024-01-06T04:30:28;98733.72;;;-0.12;90.34
84797;BME280;75028;51.374;21.078;2024-01-06T04:32:54;98729.72;;;-0.04;90.72
84797;BME280;75028;51.374;21.078;2024-01-06T04:35:20;98729.06;;;-0.07;91.11
84797;BME280;75028;51.374;21.078;2024-01-06T04:37:47;98730.28;;;-0.13;91.03
84797;BME280;75028;51.374;21.078;2024-01-06T04:40:13;98723.41;;;0.00;91.32
84797;BME280;75028;51.374;21.078;2024-01-06T04:42:39;98719.53;;;-0.07;90.46
84797;BME280;75028;51.374;21.078;2024-01-06T04:45:05;98715.34;;;-0.09;90.20
84797;BME280;75028;51.374;21.078;2024-01-06T04:47:32;98717.78;;;-0.06;90.45
84797;BME280;75028;51.374;21.078;2024-01-06T04:49:57;98726.47;;;-0.07;90.04
84797;BME280;75028;51.374;21.078;2024-01-06T04:52:24;98726.41;;;-0.20;90.94
84797;BME280;75028;51.374;21.078;2024-01-06T04:54:49;98716.47;;;-0.13;90.41
84797;BME280;75028;51.374;21.078;2024-01-06T04:57:16;98722.47;;;0.01;90.56
84797;BME280;75028;51.374;21.078;2024-01-06T04:59:42;98717.28;;;-0.13;90.34
84797;BME280;75028;51.374;21.078;2024-01-06T05:02:08;98726.84;;;0.01;90.89
84797;BME280;75028;51.374;21.078;2024-01-06T05:04:34;98737.25;;;0.01;90.55
84797;BME280;75028;51.374;21.078;2024-01-06T05:07:00;98743.16;;;0.03;90.70
84797;BME280;75028;51.374;21.078;2024-01-06T05:09:26;98733.53;;;-0.09;90.77
84797;BME280;75028;51.374;21.078;2024-01-06T05:11:52;98729.06;;;-0.07;91.08
84797;BME280;75028;51.374;21.078;2024-01-06T05:14:18;98723.50;;;-0.01;90.98
84797;BME280;75028;51.374;21.078;2024-01-06T05:16:44;98731.66;;;-0.07;90.25
84797;BME280;75028;51.374;21.078;2024-01-06T05:19:10;98735.66;;;-0.16;91.32
84797;BME280;75028;51.374;21.078;2024-01-06T05:21:36;98730.09;;;-0.24;91.20
84797;BME280;75028;51.374;21.078;2024-01-06T05:24:02;98733.72;;;-0.12;91.28
84797;BME280;75028;51.374;21.078;2024-01-06T05:26:29;98731.47;;;-0.04;90.88
84797;BME280;75028;51.374;21.078;2024-01-06T05:28:55;98730.28;;;0.01;89.95
84797;BME280;75028;51.374;21.078;2024-01-06T05:31:21;98737.97;;;0.03;91.24
84797;BME280;75028;51.374;21.078;2024-01-06T05:33:48;98734.81;;;0.12;90.60
84797;BME280;75028;51.374;21.078;2024-01-06T05:36:19;98733.88;;;0.13;90.41
84797;BME280;75028;51.374;21.078;2024-01-06T05:38:45;98731.59;;;0.09;91.23
84797;BME280;75028;51.374;21.078;2024-01-06T05:41:12;98733.72;;;0.02;91.04
84797;BME280;75028;51.374;21.078;2024-01-06T05:43:38;98741.25;;;0.07;90.41
84797;BME280;75028;51.374;21.078;2024-01-06T05:46:05;98727.78;;;0.14;90.54
84797;BME280;75028;51.374;21.078;2024-01-06T05:48:31;98738.44;;;0.10;90.10
84797;BME280;75028;51.374;21.078;2024-01-06T05:50:57;98744.78;;;0.06;89.79
84797;BME280;75028;51.374;21.078;2024-01-06T05:53:23;98744.13;;;0.02;90.39
84797;BME280;75028;51.374;21.078;2024-01-06T05:55:49;98748.94;;;0.08;90.61
84797;BME280;75028;51.374;21.078;2024-01-06T05:58:16;98750.69;;;0.08;89.39
84797;BME280;75028;51.374;21.078;2024-01-06T06:00:42;98755.63;;;0.12;90.42
84797;BME280;75028;51.374;21.078;2024-01-06T06:03:08;98764.78;;;0.18;89.80
84797;BME280;75028;51.374;21.078;2024-01-06T06:05:34;98765.66;;;0.04;89.37
84797;BME280;75028;51.374;21.078;2024-01-06T06:08:00;98771.75;;;0.03;90.46
84797;BME280;75028;51.374;21.078;2024-01-06T06:10:27;98771.22;;;0.12;90.17
84797;BME280;75028;51.374;21.078;2024-01-06T06:13:06;98781.06;;;0.07;90.17
84797;BME280;75028;51.374;21.078;2024-01-06T06:15:33;98777.53;;;-0.06;90.15
84797;BME280;75028;51.374;21.078;2024-01-06T06:17:58;98783.00;;;0.03;90.58
84797;BME280;75028;51.374;21.078;2024-01-06T06:20:27;98788.56;;;0.12;90.43
84797;BME280;75028;51.374;21.078;2024-01-06T06:22:53;98775.19;;;0.03;89.00
84797;BME280;75028;51.374;21.078;2024-01-06T06:25:20;98785.50;;;0.05;90.91
84797;BME280;75028;51.374;21.078;2024-01-06T06:27:45;98788.28;;;0.02;89.82
84797;BME280;75028;51.374;21.078;2024-01-06T06:30:12;98783.56;;;0.09;90.52
84797;BME280;75028;51.374;21.078;2024-01-06T06:32:38;98789.59;;;0.09;90.92
84797;BME280;75028;51.374;21.078;2024-01-06T06:35:05;98784.75;;;0.03;90.24
84797;BME280;75028;51.374;21.078;2024-01-06T06:37:32;98790.88;;;0.16;90.98
84797;BME280;75028;51.374;21.078;2024-01-06T06:39:59;98794.22;;;0.18;89.97
84797;BME280;75028;51.374;21.078;2024-01-06T06:42:25;98802.41;;;0.12;90.51
84797;BME280;75028;51.374;21.078;2024-01-06T06:44:52;98799.03;;;0.10;90.59
84797;BME280;75028;51.374;21.078;2024-01-06T06:47:18;98803.16;;;0.14;91.09
84797;BME280;75028;51.374;21.078;2024-01-06T06:49:45;98797.94;;;0.14;90.28
84797;BME280;75028;51.374;21.078;2024-01-06T06:52:11;98793.28;;;0.19;90.06
84797;BME280;75028;51.374;21.078;2024-01-06T06:54:38;98805.34;;;0.20;89.69
84797;BME280;75028;51.374;21.078;2024-01-06T06:57:04;98800.91;;;0.22;90.08
84797;BME280;75028;51.374;21.078;2024-01-06T06:59:30;98807.03;;;0.21;89.77
84797;BME280;75028;51.374;21.078;2024-01-06T07:01:56;98812.88;;;0.25;89.10
84797;BME280;75028;51.374;21.078;2024-01-06T07:04:22;98810.00;;;0.15;89.92
84797;BME280;75028;51.374;21.078;2024-01-06T07:06:49;98816.97;;;0.15;90.06
84797;BME280;75028;51.374;21.078;2024-01-06T07:09:15;98817.25;;;0.24;90.72
84797;BME280;75028;51.374;21.078;2024-01-06T07:11:41;98811.38;;;0.35;90.81
84797;BME280;75028;51.374;21.078;2024-01-06T07:14:07;98806.28;;;0.33;90.48
84797;BME280;75028;51.374;21.078;2024-01-06T07:16:33;98805.91;;;0.39;89.21
84797;BME280;75028;51.374;21.078;2024-01-06T07:18:59;98808.13;;;0.45;90.32
84797;BME280;75028;51.374;21.078;2024-01-06T07:21:26;98811.66;;;0.30;89.71
84797;BME280;75028;51.374;21.078;2024-01-06T07:23:51;98812.69;;;0.28;91.06
84797;BME280;75028;51.374;21.078;2024-01-06T07:26:18;98817.34;;;0.23;91.46
84797;BME280;75028;51.374;21.078;2024-01-06T07:28:43;98812.59;;;0.29;90.27
84797;BME280;75028;51.374;21.078;2024-01-06T07:31:10;98811.88;;;0.27;90.02
84797;BME280;75028;51.374;21.078;2024-01-06T07:33:36;98809.44;;;0.38;90.56
84797;BME280;75028;51.374;21.078;2024-01-06T07:36:02;98810.25;;;0.39;90.62
84797;BME280;75028;51.374;21.078;2024-01-06T07:38:28;98812.97;;;0.23;89.82
84797;BME280;75028;51.374;21.078;2024-01-06T07:40:57;98810.84;;;0.16;90.23
84797;BME280;75028;51.374;21.078;2024-01-06T07:43:23;98811.94;;;0.12;90.73
84797;BME280;75028;51.374;21.078;2024-01-06T07:45:49;98821.03;;;0.19;89.80
84797;BME280;75028;51.374;21.078;2024-01-06T07:48:16;98825.97;;;0.23;89.47
84797;BME280;75028;51.374;21.078;2024-01-06T07:50:42;98826.53;;;0.14;89.84
84797;BME280;75028;51.374;21.078;2024-01-06T07:53:09;98826.22;;;0.19;90.13
84797;BME280;75028;51.374;21.078;2024-01-06T07:55:35;98825.59;;;0.15;89.93
84797;BME280;75028;51.374;21.078;2024-01-06T07:58:01;98838.16;;;0.09;89.94
84797;BME280;75028;51.374;21.078;2024-01-06T08:00:27;98833.66;;;0.11;89.78
84797;BME280;75028;51.374;21.078;2024-01-06T08:02:53;98841.56;;;0.09;90.86
84797;BME280;75028;51.374;21.078;2024-01-06T08:05:20;98849.75;;;0.17;90.51
84797;BME280;75028;51.374;21.078;2024-01-06T08:07:46;98842.31;;;0.25;90.58
84797;BME280;75028;51.374;21.078;2024-01-06T08:10:13;98854.09;;;0.17;90.67
84797;BME280;75028;51.374;21.078;2024-01-06T08:12:39;98849.19;;;0.12;89.34
84797;BME280;75028;51.374;21.078;2024-01-06T08:15:05;98856.44;;;0.21;90.42
84797;BME280;75028;51.374;21.078;2024-01-06T08:17:33;98855.84;;;0.30;90.57
84797;BME280;75028;51.374;21.078;2024-01-06T08:19:59;98847.59;;;0.38;89.19
84797;BME280;75028;51.374;21.078;2024-01-06T08:22:25;98848.44;;;0.24;89.38
84797;BME280;75028;51.374;21.078;2024-01-06T08:24:51;98847.41;;;0.27;89.94
84797;BME280;75028;51.374;21.078;2024-01-06T08:27:18;98855.22;;;0.27;89.68
84797;BME280;75028;51.374;21.078;2024-01-06T08:29:44;98852.13;;;0.20;90.33
84797;BME280;75028;51.374;21.078;2024-01-06T08:32:10;98851.88;;;0.25;90.99
84797;BME280;75028;51.374;21.078;2024-01-06T08:34:37;98852.44;;;0.30;89.97
84797;BME280;75028;51.374;21.078;2024-01-06T08:37:03;98855.84;;;0.30;89.73
84797;BME280;75028;51.374;21.078;2024-01-06T08:39:30;98857.06;;;0.39;89.09
84797;BME280;75028;51.374;21.078;2024-01-06T08:41:56;98859.38;;;0.43;89.12
84797;BME280;75028;51.374;21.078;2024-01-06T08:44:22;98856.63;;;0.32;89.55
84797;BME280;75028;51.374;21.078;2024-01-06T08:46:48;98859.28;;;0.45;90.68
84797;BME280;75028;51.374;21.078;2024-01-06T08:49:14;98858.00;;;0.52;89.84
84797;BME280;75028;51.374;21.078;2024-01-06T08:51:41;98865.63;;;0.41;89.35
84797;BME280;75028;51.374;21.078;2024-01-06T08:54:07;98868.31;;;0.53;89.43
84797;BME280;75028;51.374;21.078;2024-01-06T08:56:33;98863.94;;;0.54;89.90
84797;BME280;75028;51.374;21.078;2024-01-06T08:58:59;98865.25;;;0.47;88.36
84797;BME280;75028;51.374;21.078;2024-01-06T09:01:26;98872.38;;;0.57;88.54
84797;BME280;75028;51.374;21.078;2024-01-06T09:03:52;98874.25;;;0.55;89.12
84797;BME280;75028;51.374;21.078;2024-01-06T09:06:18;98875.66;;;0.61;88.57
84797;BME280;75028;51.374;21.078;2024-01-06T09:08:44;98879.47;;;0.55;88.86
84797;BME280;75028;51.374;21.078;2024-01-06T09:11:10;98873.13;;;0.59;88.47
84797;BME280;75028;51.374;21.078;2024-01-06T09:13:36;98873.22;;;0.44;89.30
84797;BME280;75028;51.374;21.078;2024-01-06T09:16:02;98873.88;;;0.47;89.58
84797;BME280;75028;51.374;21.078;2024-01-06T09:18:28;98867.09;;;0.45;89.00
84797;BME280;75028;51.374;21.078;2024-01-06T09:20:54;98875.00;;;0.29;88.52
84797;BME280;75028;51.374;21.078;2024-01-06T09:23:22;98877.69;;;0.42;89.46
84797;BME280;75028;51.374;21.078;2024-01-06T09:25:48;98881.31;;;0.39;89.61
84797;BME280;75028;51.374;21.078;2024-01-06T09:28:16;98887.25;;;0.41;90.13
84797;BME280;75028;51.374;21.078;2024-01-06T09:30:42;98885.97;;;0.48;89.55
84797;BME280;75028;51.374;21.078;2024-01-06T09:33:08;98889.28;;;0.50;89.46
84797;BME280;75028;51.374;21.078;2024-01-06T09:35:34;98893.00;;;0.46;89.07
84797;BME280;75028;51.374;21.078;2024-01-06T09:38:01;98882.59;;;0.46;89.07
84797;BME280;75028;51.374;21.078;2024-01-06T09:40:31;98887.34;;;0.40;88.68
84797;BME280;75028;51.374;21.078;2024-01-06T09:42:57;98893.38;;;0.40;89.14
84797;BME280;75028;51.374;21.078;2024-01-06T09:45:23;98902.78;;;0.43;90.16
84797;BME280;75028;51.374;21.078;2024-01-06T09:47:51;98898.41;;;0.43;89.08
84797;BME280;75028;51.374;21.078;2024-01-06T09:50:18;98907.78;;;0.60;89.69
84797;BME280;75028;51.374;21.078;2024-01-06T09:52:48;98898.69;;;0.53;88.79
84797;BME280;75028;51.374;21.078;2024-01-06T09:55:25;98900.91;;;0.45;88.96
84797;BME280;75028;51.374;21.078;2024-01-06T09:57:54;98900.00;;;0.46;89.23
84797;BME280;75028;51.374;21.078;2024-01-06T10:00:21;98902.47;;;0.47;90.10
84797;BME280;75028;51.374;21.078;2024-01-06T10:02:50;98907.97;;;0.43;89.13
84797;BME280;75028;51.374;21.078;2024-01-06T10:05:21;98905.38;;;0.43;89.71
84797;BME280;75028;51.374;21.078;2024-01-06T10:07:48;98904.53;;;0.42;89.01
84797;BME280;75028;51.374;21.078;2024-01-06T10:10:14;98898.56;;;0.40;89.67
84797;BME280;75028;51.374;21.078;2024-01-06T10:12:41;98896.28;;;0.36;89.45
84797;BME280;75028;51.374;21.078;2024-01-06T10:15:09;98907.13;;;0.42;89.49
84797;BME280;75028;51.374;21.078;2024-01-06T10:17:39;98909.16;;;0.37;89.56
84797;BME280;75028;51.374;21.078;2024-01-06T10:20:08;98902.03;;;0.41;89.87
84797;BME280;75028;51.374;21.078;2024-01-06T10:22:40;98900.44;;;0.52;88.48
84797;BME280;75028;51.374;21.078;2024-01-06T10:25:10;98901.56;;;0.62;88.53
84797;BME280;75028;51.374;21.078;2024-01-06T10:27:40;98903.81;;;0.54;89.71
84797;BME280;75028;51.374;21.078;2024-01-06T10:30:08;98899.16;;;0.45;89.12
84797;BME280;75028;51.374;21.078;2024-01-06T10:32:35;98891.72;;;0.53;89.19
84797;BME280;75028;51.374;21.078;2024-01-06T10:35:03;98894.66;;;0.47;89.44
84797;BME280;75028;51.374;21.078;2024-01-06T10:37:31;98900.81;;;0.60;89.11
84797;BME280;75028;51.374;21.078;2024-01-06T10:40:15;98899.31;;;0.70;89.61
84797;BME280;75028;51.374;21.078;2024-01-06T10:42:42;98894.13;;;0.70;90.08
84797;BME280;75028;51.374;21.078;2024-01-06T10:45:13;98897.22;;;0.63;88.91
84797;BME280;75028;51.374;21.078;2024-01-06T10:47:43;98898.19;;;0.74;88.58
84797;BME280;75028;51.374;21.078;2024-01-06T10:50:09;98902.69;;;0.72;89.09
84797;BME280;75028;51.374;21.078;2024-01-06T10:52:37;98902.59;;;0.74;88.99
84797;BME280;75028;51.374;21.078;2024-01-06T10:55:05;98903.88;;;0.67;89.11
84797;BME280;75028;51.374;21.078;2024-01-06T10:57:31;98896.19;;;0.65;89.01
84797;BME280;75028;51.374;21.078;2024-01-06T10:59:58;98893.31;;;0.70;89.07
84797;BME280;75028;51.374;21.078;2024-01-06T11:02:25;98892.19;;;0.74;90.50
84797;BME280;75028;51.374;21.078;2024-01-06T11:04:52;98892.72;;;0.65;88.84
84797;BME280;75028;51.374;21.078;2024-01-06T11:07:19;98902.31;;;0.64;89.27
84797;BME280;75028;51.374;21.078;2024-01-06T11:09:55;98890.81;;;0.54;89.38
84797;BME280;75028;51.374;21.078;2024-01-06T11:12:22;98890.50;;;0.59;90.34
84797;BME280;75028;51.374;21.078;2024-01-06T11:14:48;98885.69;;;0.53;88.84
84797;BME280;75028;51.374;21.078;2024-01-06T11:17:50;98885.19;;;0.60;89.51
84797;BME280;75028;51.374;21.078;2024-01-06T11:20:20;98888.91;;;0.56;89.76
84797;BME280;75028;51.374;21.078;2024-01-06T11:22:50;98887.97;;;0.57;89.34
84797;BME280;75028;51.374;21.078;2024-01-06T11:25:20;98883.91;;;0.53;89.72
84797;BME280;75028;51.374;21.078;2024-01-06T11:27:48;98883.81;;;0.69;89.19
84797;BME280;75028;51.374;21.078;2024-01-06T11:30:35;98885.59;;;0.68;89.66
84797;BME280;75028;51.374;21.078;2024-01-06T11:33:04;98885.28;;;0.59;88.35
84797;BME280;75028;51.374;21.078;2024-01-06T11:35:31;98879.44;;;0.69;89.76
84797;BME280;75028;51.374;21.078;2024-01-06T11:38:00;98880.81;;;0.75;88.54
84797;BME280;75028;51.374;21.078;2024-01-06T11:40:36;98878.13;;;0.76;89.24
84797;BME280;75028;51.374;21.078;2024-01-06T11:43:08;98877.78;;;0.68;89.20
84797;BME280;75028;51.374;21.078;2024-01-06T11:45:36;98885.00;;;0.63;90.63
84797;BME280;75028;51.374;21.078;2024-01-06T11:48:10;98875.66;;;0.61;89.47
84797;BME280;75028;51.374;21.078;2024-01-06T11:50:39;98883.53;;;0.59;90.09
84797;BME280;75028;51.374;21.078;2024-01-06T11:53:07;98877.88;;;0.53;89.20
84797;BME280;75028;51.374;21.078;2024-01-06T11:55:38;98881.97;;;0.43;90.32
84797;BME280;75028;51.374;21.078;2024-01-06T11:58:04;98879.47;;;0.41;89.87
84797;BME280;75028;51.374;21.078;2024-01-06T12:00:32;98884.84;;;0.38;90.03
84797;BME280;75028;51.374;21.078;2024-01-06T12:03:00;98896.28;;;0.36;90.36
84797;BME280;75028;51.374;21.078;2024-01-06T12:05:27;98891.06;;;0.36;89.71
84797;BME280;75028;51.374;21.078;2024-01-06T12:07:55;98896.16;;;0.23;90.01
84797;BME280;75028;51.374;21.078;2024-01-06T12:10:22;98897.16;;;0.21;90.09
84797;BME280;75028;51.374;21.078;2024-01-06T12:12:58;98901.34;;;0.23;90.24
84797;BME280;75028;51.374;21.078;2024-01-06T12:15:25;98910.16;;;0.21;90.22
84797;BME280;75028;51.374;21.078;2024-01-06T12:17:51;98909.91;;;0.25;91.22
84797;BME280;75028;51.374;21.078;2024-01-06T12:20:18;98908.59;;;0.18;91.09
84797;BME280;75028;51.374;21.078;2024-01-06T12:22:44;98913.44;;;0.24;91.15
84797;BME280;75028;51.374;21.078;2024-01-06T12:25:10;98907.47;;;0.22;91.09
84797;BME280;75028;51.374;21.078;2024-01-06T12:27:41;98914.16;;;0.26;91.53
84797;BME280;75028;51.374;21.078;2024-01-06T12:30:16;98915.19;;;0.24;90.82
84797;BME280;75028;51.374;21.078;2024-01-06T12:32:45;98916.22;;;0.21;92.20
84797;BME280;75028;51.374;21.078;2024-01-06T12:35:12;98907.19;;;0.13;91.79
84797;BME280;75028;51.374;21.078;2024-01-06T12:37:38;98917.97;;;0.21;92.01
84797;BME280;75028;51.374;21.078;2024-01-06T12:40:05;98914.44;;;0.22;93.00
84797;BME280;75028;51.374;21.078;2024-01-06T12:42:34;98916.84;;;0.25;91.54
84797;BME280;75028;51.374;21.078;2024-01-06T12:45:00;98915.47;;;0.19;92.46
84797;BME280;75028;51.374;21.078;2024-01-06T12:47:26;98919.53;;;0.23;91.63
84797;BME280;75028;51.374;21.078;2024-01-06T12:49:52;98920.66;;;0.19;92.52
84797;BME280;75028;51.374;21.078;2024-01-06T12:52:18;98928.53;;;0.18;92.48
84797;BME280;75028;51.374;21.078;2024-01-06T12:54:44;98929.22;;;0.21;92.64
84797;BME280;75028;51.374;21.078;2024-01-06T12:57:11;98923.44;;;0.16;92.82